Погода Зилона 2 недели

Республика Дагестан, Россия

17 - 30 июля
  • 17июля
    Сегодня
    +15°
    +24°
    Небольшая облачность
    ВремяПогодаТемператураВлажностьДавлениеВетер, м/сВероятность осадков
    00:00Ясно и безоблачно+16°C65 %618 мм0.5 м/с2 %
    03:00Ясно и безоблачно+16°C59 %618 мм0.6 м/с1 %
    06:00Ясно и безоблачно+17°C56 %619 мм0.6 м/с2 %
    09:00Ясно и безоблачно+21°C46 %621 мм0.7 м/с2 %
    12:00Облачно с прояснениями+23°C40 %621 мм1.9 м/с11 %
    15:00Небольшая облачность+24°C41 %621 мм2.3 м/с14 %
    18:00Облачно с прояснениями+21°C52 %620 мм1.2 м/с8 %
    21:00Облачно с прояснениями+17°C68 %619 мм0.6 м/с3 %
  • 18июля
    Четверг
    +13°
    +22°
    Облачно с прояснениями
    ВремяПогодаТемператураВлажностьДавлениеВетер, м/сВероятность осадков
    00:00Облачно с прояснениями+16°C65 %619 мм0.5 м/с3 %
    03:00Облачно с прояснениями+16°C65 %618 мм0.4 м/с10 %
    06:00Небольшая облачность+17°C65 %619 мм0.6 м/с7 %
    09:00Ясно и безоблачно+19°C45 %620 мм1.3 м/с6 %
    12:00Облачно с прояснениями+21°C42 %620 мм2.3 м/с18 %
    15:00Облачно с прояснениями+22°C49 %620 мм2.3 м/с22 %
    18:00Облачно с прояснениями+18°C62 %619 мм1.4 м/с16 %
    21:00Облачно с прояснениями+16°C84 %618 мм0.4 м/с5 %
  • 19июля
    Пятница
    +14°
    +23°
    Небольшая облачность
    ВремяПогодаТемператураВлажностьДавлениеВетер, м/сВероятность осадков
    00:00Небольшая облачность+15°C69 %617 мм0.5 м/с4 %
    03:00Ясно и безоблачно+15°C71 %617 мм0.9 м/с2 %
    06:00Ясно и безоблачно+16°C62 %617 мм0.4 м/с3 %
    09:00Ясно и безоблачно+20°C42 %618 мм0.5 м/с4 %
    12:00Ясно и безоблачно+22°C35 %618 мм2.4 м/с7 %
    15:00Небольшая облачность+23°C37 %618 мм2.4 м/с9 %
    18:00Облачно с прояснениями+21°C47 %617 мм1.2 м/с7 %
    21:00Облачно с прояснениями+15°C57 %616 мм1.2 м/с2 %
  • 20июля
    Суббота
    +15°
    +24°
    Пасмурно, сплошная облачность
    ВремяПогодаТемператураВлажностьДавлениеВетер, м/сВероятность осадков
    00:00Облачно с прояснениями+14°C56 %615 мм0.3 м/с2 %
    03:00Облачно с прояснениями+15°C56 %614 мм0.5 м/с3 %
    06:00Облачно с прояснениями+16°C57 %615 мм0.1 м/с4 %
    09:00Небольшая облачность+21°C42 %617 мм0.5 м/с11 %
    12:00Облачно с прояснениями+23°C33 %617 мм2.3 м/с17 %
    15:00Пасмурно, сплошная облачность+21°C36 %616 мм2.3 м/с13 %
    18:00Облачно с прояснениями+19°C51 %615 мм0.9 м/с9 %
    21:00Облачно с прояснениями+18°C52 %615 мм0.8 м/с16 %
  • 21июля
    Воскресенье
    +16°
    +25°
    Практически безоблачно
    ВремяПогодаТемператураВлажностьДавлениеВетер, м/сВероятность осадков
    00:00Небольшая облачность+17°C48 %615 мм1.1 м/с16 %
    03:00Небольшая облачность+16°C45 %615 мм1.4 м/с15 %
    06:00Облачно с прояснениями+17°C54 %616 мм1.3 м/с23 %
    09:00Небольшая облачность+20°C47 %618 мм1.5 м/с20 %
    12:00Ясно и безоблачно+23°C36 %618 мм1.8 м/с24 %
    15:00Практически безоблачно+24°C32 %618 мм2.5 м/с35 %
    18:00Ясно и безоблачно+22°C46 %618 мм1.3 м/с23 %
    21:00Ясно и безоблачно+18°C48 %617 мм0.6 м/с2 %
Мы используем cookies
Соглашаюсь